Elgin, Oregon
Current Conditions -  °F | °C
As of 2:15 AM on Saturday 22 Nov 2014 (Local Time) from KLGD Reporting Station
Overcast Overcast  
Wind Chill: 33°   Ceiling: 2600
Heat Index: 41°   Visibility: 10mi
Dew Point: 32°   Wind: 14mph
Humidity: 70%   Direction: 190°S
Pressure: 29.63"   Gusts: NA
Location:  45.56°N, 117.92°W
Report Text: KLGD 221015Z AUTO 19012KT 10SM OVC026 05/00 A2963 RMK AO1 P0003
Loading
Personal Weather Stations






























Interactive Weather Map New forecast layout! Learn more

10-Day Weather Forecast

Advertisements
Track Severe Weather on mobile